createdAt,value
2022-10-03T00:01:22.623Z,1.00
2022-10-03T00:03:58.929Z,0.77
2022-10-03T00:06:37.755Z,1.27
2022-10-03T00:09:31.046Z,1.03
2022-10-03T00:12:11.731Z,1.00
2022-10-03T00:14:49.884Z,1.33
2022-10-03T00:17:25.416Z,0.90
2022-10-03T00:20:04.672Z,0.90
2022-10-03T00:22:43.815Z,0.90
2022-10-03T00:25:27.971Z,1.00
2022-10-03T00:28:11.092Z,0.90
2022-10-03T00:30:51.606Z,1.30
2022-10-03T00:33:30.634Z,1.00
2022-10-03T00:36:07.818Z,0.63
2022-10-03T00:38:51.725Z,0.90
2022-10-03T00:41:35.835Z,0.87
2022-10-03T00:44:59.487Z,1.03
2022-10-03T00:48:09.530Z,1.20
2022-10-03T00:51:20.539Z,1.10
2022-10-03T00:53:58.572Z,0.90
2022-10-03T00:56:51.109Z,0.80
2022-10-03T00:59:34.830Z,0.90
2022-10-03T01:02:25.335Z,1.03
2022-10-03T01:04:59.054Z,1.00
2022-10-03T01:08:10.717Z,0.80
2022-10-03T01:10:47.939Z,1.50
2022-10-03T01:13:33.375Z,0.93
2022-10-03T01:16:12.294Z,0.87
2022-10-03T01:18:53.214Z,0.80
2022-10-03T01:21:34.575Z,0.83
2022-10-03T01:24:43.166Z,0.87
2022-10-03T01:27:16.339Z,0.80
2022-10-03T01:30:10.104Z,0.80
2022-10-03T01:32:48.707Z,1.00
2022-10-03T01:35:29.230Z,1.00
2022-10-03T01:38:11.107Z,1.10
2022-10-03T01:40:44.600Z,1.03
2022-10-03T01:43:21.247Z,0.97
2022-10-03T01:46:15.354Z,0.90
2022-10-03T01:48:53.077Z,1.10
2022-10-03T01:51:28.232Z,1.40
2022-10-03T01:54:08.890Z,0.90
2022-10-03T01:56:44.282Z,1.20
2022-10-03T01:59:19.395Z,1.00
2022-10-03T02:01:54.901Z,0.90
2022-10-03T02:04:37.439Z,1.27
2022-10-03T02:07:18.075Z,1.40
2022-10-03T02:09:57.568Z,1.00
2022-10-03T02:12:35.075Z,1.43
2022-10-03T02:15:14.450Z,1.30
2022-10-03T02:17:54.405Z,1.20
2022-10-03T02:20:29.569Z,1.50
2022-10-03T02:22:59.838Z,1.20
2022-10-03T02:25:42.318Z,1.47
2022-10-03T02:28:51.960Z,1.13
2022-10-03T02:32:07.290Z,1.40
2022-10-03T02:35:12.090Z,1.10
2022-10-03T02:38:06.836Z,1.20
2022-10-03T02:41:08.252Z,1.33
2022-10-03T02:44:12.479Z,1.17
2022-10-03T02:47:12.020Z,1.53
2022-10-03T02:50:20.073Z,1.47
2022-10-03T02:53:17.958Z,1.47
2022-10-03T02:56:07.285Z,1.20
2022-10-03T02:59:04.704Z,1.37
2022-10-03T03:01:52.776Z,1.20
2022-10-03T03:04:52.093Z,1.10
2022-10-03T03:07:38.397Z,1.47
2022-10-03T03:10:48.346Z,1.30
2022-10-03T03:13:49.585Z,1.30
2022-10-03T03:16:57.515Z,1.60
2022-10-03T03:20:00.598Z,1.20
2022-10-03T03:22:41.290Z,1.45
2022-10-03T03:25:40.048Z,1.43
2022-10-03T03:28:20.752Z,0.97
2022-10-03T03:30:59.985Z,1.20
2022-10-03T03:33:36.573Z,1.13
2022-10-03T03:36:12.063Z,1.17
2022-10-03T03:38:48.631Z,1.20
2022-10-03T03:41:32.860Z,1.27
2022-10-03T03:44:26.646Z,1.00
2022-10-03T03:47:14.744Z,1.30
2022-10-03T03:50:03.268Z,1.07
2022-10-03T03:52:47.052Z,1.33
2022-10-03T03:55:47.150Z,1.20
2022-10-03T03:58:25.568Z,1.40
2022-10-03T04:01:08.270Z,1.20
2022-10-03T04:03:51.862Z,1.33
2022-10-03T04:06:36.566Z,1.10
2022-10-03T04:09:27.982Z,1.07
2022-10-03T04:12:09.425Z,1.20
2022-10-03T04:15:10.606Z,1.10
2022-10-03T04:18:11.141Z,1.37
2022-10-03T04:21:02.483Z,1.23
2022-10-03T04:23:50.114Z,1.27
2022-10-03T04:26:43.228Z,1.10
2022-10-03T04:29:35.511Z,1.83
2022-10-03T04:32:16.819Z,1.40
2022-10-03T04:34:56.753Z,1.40
2022-10-03T04:37:35.654Z,1.40
2022-10-03T04:40:19.284Z,1.13
2022-10-03T04:42:58.496Z,1.17
2022-10-03T04:45:40.155Z,1.67
2022-10-03T04:48:18.025Z,2.00
2022-10-03T04:51:01.795Z,2.00
2022-10-03T04:53:46.259Z,1.90
2022-10-03T04:56:50.405Z,1.50
2022-10-03T04:59:42.580Z,1.50
2022-10-03T05:02:22.713Z,1.53
2022-10-03T05:05:14.051Z,1.20
2022-10-03T05:07:51.835Z,1.47
2022-10-03T05:10:47.185Z,1.27
2022-10-03T05:13:30.440Z,1.03
2022-10-03T05:16:06.373Z,1.70
2022-10-03T05:18:42.400Z,1.20
2022-10-03T05:21:16.029Z,1.20
2022-10-03T05:24:02.879Z,1.50
2022-10-03T05:26:45.462Z,1.87
2022-10-03T05:29:21.880Z,5.00
2022-10-03T05:32:00.892Z,2.80
2022-10-03T05:34:41.659Z,1.40
2022-10-03T05:37:49.495Z,1.13
2022-10-03T05:40:22.332Z,1.53
2022-10-03T05:43:05.806Z,2.17
2022-10-03T05:45:48.695Z,3.17
2022-10-03T05:48:32.904Z,1.87
2022-10-03T05:51:14.379Z,1.50
2022-10-03T05:54:05.094Z,1.60
2022-10-03T05:56:54.542Z,1.20
2022-10-03T05:59:59.297Z,1.20
2022-10-03T06:02:53.148Z,1.33
2022-10-03T06:06:08.100Z,1.48
2022-10-03T06:09:12.012Z,1.57
2022-10-03T06:12:03.016Z,1.20
2022-10-03T06:14:38.342Z,1.60
2022-10-03T06:17:29.093Z,1.20
2022-10-03T06:20:12.321Z,1.47
2022-10-03T06:23:28.487Z,1.57
2022-10-03T06:26:26.955Z,1.37
2022-10-03T06:29:25.693Z,1.40
2022-10-03T06:32:32.583Z,1.60
2022-10-03T06:35:43.287Z,1.13
2022-10-03T06:38:47.748Z,1.23
2022-10-03T06:42:07.708Z,1.40
2022-10-03T06:44:57.837Z,1.70
2022-10-03T06:47:43.155Z,1.30
2022-10-03T06:50:33.391Z,1.53
2022-10-03T06:53:15.221Z,1.80
2022-10-03T06:56:31.983Z,1.83
2022-10-03T06:59:30.900Z,1.10
2022-10-03T07:02:42.695Z,1.33
2022-10-03T07:05:44.447Z,1.23
2022-10-03T07:08:43.808Z,1.60
2022-10-03T07:11:44.177Z,1.77
2022-10-03T07:14:57.662Z,1.50
2022-10-03T07:17:49.543Z,1.40
2022-10-03T07:20:51.200Z,1.70
2022-10-03T07:24:03.157Z,1.90
2022-10-03T07:27:06.844Z,2.33
2022-10-03T07:29:55.473Z,1.20
2022-10-03T07:32:58.983Z,1.50
2022-10-03T07:36:03.085Z,1.50
2022-10-03T07:39:09.937Z,1.47
2022-10-03T07:42:16.938Z,1.30
2022-10-03T07:45:24.230Z,1.30
2022-10-03T07:48:13.385Z,1.30
2022-10-03T07:51:07.077Z,1.40
2022-10-03T07:54:15.396Z,1.75
2022-10-03T07:57:04.085Z,1.27
2022-10-03T08:00:14.530Z,1.70
2022-10-03T08:03:15.724Z,1.20
2022-10-03T08:06:12.238Z,1.20
2022-10-03T08:09:05.645Z,1.17
2022-10-03T08:11:49.687Z,1.13
2022-10-03T08:14:20.475Z,1.40
2022-10-03T08:17:12.676Z,0.80
2022-10-03T08:20:00.865Z,1.30
2022-10-03T08:22:45.682Z,1.03
2022-10-03T08:25:31.855Z,1.00
2022-10-03T08:28:27.669Z,0.90
2022-10-03T08:31:32.157Z,1.00
2022-10-03T08:34:32.819Z,1.00
2022-10-03T08:37:27.495Z,0.93
2022-10-03T08:40:25.487Z,1.00
2022-10-03T08:43:20.067Z,1.10
2022-10-03T08:46:06.263Z,0.87
2022-10-03T08:49:27.652Z,0.73
2022-10-03T08:52:21.506Z,0.93
2022-10-03T08:55:22.789Z,0.90
2022-10-03T08:58:36.676Z,0.60
2022-10-03T09:01:19.974Z,1.00
2022-10-03T09:04:19.139Z,0.80
2022-10-03T09:07:23.838Z,1.50
2022-10-03T09:10:16.427Z,0.70
2022-10-03T09:13:21.703Z,0.70
2022-10-03T09:16:34.780Z,0.60
2022-10-03T09:19:24.724Z,0.60
2022-10-03T09:22:16.160Z,0.70
2022-10-03T09:25:22.811Z,0.50
2022-10-03T09:28:25.330Z,0.77
2022-10-03T09:31:06.769Z,0.50
2022-10-03T09:34:13.718Z,0.40
2022-10-03T09:37:26.515Z,0.60
2022-10-03T09:40:35.294Z,0.60
2022-10-03T09:43:45.185Z,0.40
2022-10-03T09:47:08.852Z,0.50
2022-10-03T09:50:01.059Z,0.40
2022-10-03T09:52:49.158Z,0.40
2022-10-03T09:55:41.968Z,0.50
2022-10-03T09:58:41.106Z,0.40
2022-10-03T10:01:22.194Z,0.37
2022-10-03T10:04:54.413Z,0.60
2022-10-03T10:07:54.130Z,0.47
2022-10-03T10:11:01.405Z,0.30
2022-10-03T10:14:07.662Z,0.30
2022-10-03T10:16:55.836Z,0.50
2022-10-03T10:19:46.269Z,0.50
2022-10-03T10:23:04.528Z,0.70
2022-10-03T10:25:54.338Z,0.50
2022-10-03T10:28:48.331Z,0.70
2022-10-03T10:31:58.261Z,0.63
2022-10-03T10:34:58.451Z,0.70
2022-10-03T10:38:03.342Z,0.70
2022-10-03T10:41:07.172Z,0.60
2022-10-03T10:44:17.063Z,0.65
2022-10-03T10:47:12.673Z,0.70
2022-10-03T10:50:26.217Z,0.80
2022-10-03T10:53:30.964Z,0.57
2022-10-03T10:56:32.668Z,0.70
2022-10-03T10:59:39.804Z,0.50
2022-10-03T11:02:43.729Z,0.60
2022-10-03T11:05:59.647Z,0.60
2022-10-03T11:08:56.912Z,0.70
2022-10-03T11:12:14.168Z,0.75
2022-10-03T11:15:19.590Z,0.77
2022-10-03T11:18:35.788Z,0.88
2022-10-03T11:21:40.963Z,0.80
2022-10-03T11:24:38.608Z,0.80
2022-10-03T11:27:53.667Z,0.80
2022-10-03T11:30:44.729Z,1.10
2022-10-03T11:34:04.300Z,0.95
2022-10-03T11:36:55.352Z,0.95
2022-10-03T11:39:36.181Z,0.90
2022-10-03T11:42:14.709Z,1.00
2022-10-03T11:44:54.652Z,0.90
2022-10-03T11:47:42.448Z,0.95
2022-10-03T11:50:41.013Z,1.20
2022-10-03T11:53:16.327Z,1.30
2022-10-03T11:55:51.551Z,0.80
2022-10-03T11:58:36.750Z,0.73
2022-10-03T12:01:19.742Z,0.60
2022-10-03T12:03:56.705Z,0.93
2022-10-03T12:06:58.431Z,0.73
2022-10-03T12:09:36.451Z,0.73
2022-10-03T12:12:14.930Z,0.60
2022-10-03T12:14:46.823Z,0.47
2022-10-03T12:17:17.954Z,0.60
2022-10-03T12:19:57.913Z,0.38
2022-10-03T12:22:43.123Z,0.40
2022-10-03T12:25:21.741Z,0.80
2022-10-03T12:28:00.426Z,0.57
2022-10-03T12:30:34.502Z,0.80
2022-10-03T12:33:28.238Z,1.27
2022-10-03T12:36:04.529Z,0.40
2022-10-03T12:38:51.022Z,0.40
2022-10-03T12:41:38.959Z,0.30
2022-10-03T12:44:22.014Z,0.60
2022-10-03T12:47:03.288Z,0.60
2022-10-03T12:49:47.634Z,0.60
2022-10-03T12:52:23.029Z,0.40
2022-10-03T12:55:07.453Z,0.80
2022-10-03T12:57:47.557Z,0.45
2022-10-03T13:00:22.383Z,0.60
2022-10-03T13:03:15.296Z,0.40
2022-10-03T13:06:06.399Z,0.50
2022-10-03T13:08:45.503Z,0.50
2022-10-03T13:11:30.044Z,0.50
2022-10-03T13:14:21.337Z,0.38
2022-10-03T13:17:01.089Z,0.57
2022-10-03T13:19:38.977Z,0.60
2022-10-03T13:22:27.057Z,0.50
2022-10-03T13:25:02.446Z,0.40
2022-10-03T13:27:43.607Z,0.43
2022-10-03T13:30:20.835Z,0.65
2022-10-03T13:32:53.504Z,0.70
2022-10-03T13:35:52.911Z,0.80
2022-10-03T13:39:06.595Z,1.08
2022-10-03T13:41:45.085Z,1.07
2022-10-03T13:44:18.880Z,0.80
2022-10-03T13:46:54.578Z,1.40
2022-10-03T13:49:32.371Z,1.73
2022-10-03T13:52:07.334Z,1.00
2022-10-03T13:54:57.135Z,0.70
2022-10-03T13:57:29.985Z,0.50
2022-10-03T14:00:08.939Z,0.47
2022-10-03T14:02:51.399Z,0.60
2022-10-03T14:05:46.515Z,0.47
2022-10-03T14:08:31.235Z,0.57
2022-10-03T14:11:25.208Z,0.50
2022-10-03T14:14:15.491Z,0.43
2022-10-03T14:16:51.935Z,0.57
2022-10-03T14:19:28.912Z,0.65
2022-10-03T14:22:22.992Z,0.47
2022-10-03T14:25:04.577Z,0.43
2022-10-03T14:27:45.894Z,0.50
2022-10-03T14:30:16.919Z,0.43
2022-10-03T14:33:04.966Z,0.70
2022-10-03T14:35:48.033Z,0.60
2022-10-03T14:39:02.305Z,0.45
2022-10-03T14:42:12.583Z,0.40
2022-10-03T14:44:43.797Z,0.50
2022-10-03T14:47:14.576Z,0.53
2022-10-03T14:49:59.084Z,0.60
2022-10-03T14:52:34.966Z,0.55
2022-10-03T14:55:13.699Z,0.60
2022-10-03T14:58:08.747Z,0.87
2022-10-03T15:00:43.014Z,0.77
2022-10-03T15:03:24.941Z,1.00
2022-10-03T15:06:02.146Z,0.90
2022-10-03T15:08:38.311Z,0.80
2022-10-03T15:11:08.130Z,0.90
2022-10-03T15:13:42.377Z,1.03
2022-10-03T15:16:15.480Z,0.83
2022-10-03T15:18:52.836Z,0.97
2022-10-03T15:21:23.466Z,0.83
2022-10-03T15:23:57.322Z,0.67
2022-10-03T15:26:28.765Z,0.60
2022-10-03T15:29:01.053Z,0.53
2022-10-03T15:31:35.875Z,0.73
2022-10-03T15:34:08.506Z,0.60
2022-10-03T15:39:32.471Z,0.83
2022-10-03T15:42:07.886Z,0.90
2022-10-03T15:44:40.208Z,0.90
2022-10-03T15:47:13.631Z,1.23
2022-10-03T15:49:48.835Z,0.93
2022-10-03T15:52:23.140Z,0.80
2022-10-03T15:55:11.121Z,0.90
2022-10-03T15:57:44.952Z,0.80
2022-10-03T16:00:22.573Z,1.00
2022-10-03T16:02:55.855Z,0.90
2022-10-03T16:05:26.018Z,0.80
2022-10-03T16:08:02.663Z,1.17
2022-10-03T16:10:37.013Z,1.30
2022-10-03T16:13:18.150Z,1.30
2022-10-03T16:16:08.920Z,1.10
2022-10-03T16:18:56.645Z,1.13
2022-10-03T16:21:38.213Z,1.60
2022-10-03T16:24:17.926Z,1.40
2022-10-03T16:26:53.543Z,1.47
2022-10-03T16:29:26.354Z,1.43
2022-10-03T16:31:58.303Z,1.40
2022-10-03T16:34:31.065Z,1.60
2022-10-03T16:37:00.433Z,1.73
2022-10-03T16:39:34.978Z,2.13
2022-10-03T16:42:12.739Z,2.10
2022-10-03T16:44:49.820Z,2.60
2022-10-03T16:47:29.562Z,2.27
2022-10-03T16:50:16.644Z,3.20
2022-10-03T16:52:48.268Z,2.27
2022-10-03T16:55:22.657Z,2.60
2022-10-03T16:57:57.984Z,2.50
2022-10-03T17:00:36.035Z,2.97
2022-10-03T17:03:19.753Z,2.47
2022-10-03T17:05:50.092Z,2.00
2022-10-03T17:08:40.810Z,2.60
2022-10-03T17:11:21.581Z,2.20
2022-10-03T17:13:53.898Z,2.10
2022-10-03T17:16:33.519Z,1.70
2022-10-03T17:19:15.776Z,1.83
2022-10-03T17:21:52.487Z,1.90
2022-10-03T17:24:30.155Z,1.87
2022-10-03T17:27:05.742Z,1.90
2022-10-03T17:29:36.819Z,1.90
2022-10-03T17:32:15.970Z,1.70
2022-10-03T17:34:49.049Z,1.80
2022-10-03T17:37:51.947Z,1.90
2022-10-03T17:40:28.671Z,2.10
2022-10-03T17:43:03.474Z,2.50
2022-10-03T17:45:41.581Z,2.00
2022-10-03T17:48:19.073Z,1.80
2022-10-03T17:50:55.493Z,2.10
2022-10-03T17:53:28.754Z,1.63
2022-10-03T17:55:59.608Z,1.70
2022-10-03T17:58:31.646Z,1.80
2022-10-03T18:01:15.060Z,1.60
2022-10-03T18:03:51.600Z,1.60
2022-10-03T18:06:38.707Z,2.00
2022-10-03T18:09:19.901Z,1.60
2022-10-03T18:11:51.538Z,1.90
2022-10-03T18:14:33.647Z,1.70
2022-10-03T18:17:08.390Z,1.90
2022-10-03T18:19:55.637Z,1.80
2022-10-03T18:22:29.808Z,1.87
2022-10-03T18:25:24.447Z,1.60
2022-10-03T18:28:13.057Z,1.80
2022-10-03T18:30:50.040Z,2.23
2022-10-03T18:33:24.297Z,1.80
2022-10-03T18:35:53.501Z,1.67
2022-10-03T18:38:44.979Z,1.80
2022-10-03T18:41:16.964Z,2.13
2022-10-03T18:43:48.026Z,2.00
2022-10-03T18:46:26.169Z,1.97
2022-10-03T18:49:32.899Z,1.80
2022-10-03T18:52:00.391Z,1.60
2022-10-03T18:54:40.569Z,2.03
2022-10-03T18:57:17.020Z,1.73
2022-10-03T18:59:58.113Z,2.40
2022-10-03T19:02:35.328Z,1.83
2022-10-03T19:05:11.854Z,1.93
2022-10-03T19:07:48.946Z,1.67
2022-10-03T19:10:42.169Z,2.40
2022-10-03T19:13:26.333Z,2.30
2022-10-03T19:16:13.198Z,2.23
2022-10-03T19:19:02.241Z,2.33
2022-10-03T19:21:38.694Z,2.20
2022-10-03T19:24:14.276Z,2.23
2022-10-03T19:26:48.352Z,1.90
2022-10-03T19:29:21.641Z,2.57
2022-10-03T19:32:01.305Z,2.43
2022-10-03T19:34:37.796Z,2.50
2022-10-03T19:37:12.187Z,2.13
2022-10-03T19:39:40.839Z,1.93
2022-10-03T19:42:33.069Z,2.20
2022-10-03T19:45:02.118Z,1.77
2022-10-03T19:47:33.807Z,1.90
2022-10-03T19:50:14.213Z,1.50
2022-10-03T19:52:42.670Z,1.90
2022-10-03T19:55:16.026Z,2.33
2022-10-03T19:57:48.759Z,2.23
2022-10-03T20:00:32.228Z,2.00
2022-10-03T20:03:13.783Z,1.90
2022-10-03T20:05:52.092Z,1.90
2022-10-03T20:08:32.841Z,1.97
2022-10-03T20:11:22.667Z,2.30
2022-10-03T20:13:51.369Z,2.43
2022-10-03T20:16:21.884Z,2.40
2022-10-03T20:18:53.096Z,2.47
2022-10-03T20:21:26.893Z,2.50
2022-10-03T20:23:56.407Z,2.87
2022-10-03T20:26:33.385Z,2.67
2022-10-03T20:29:21.746Z,2.80
2022-10-03T20:31:50.858Z,2.90
2022-10-03T20:34:24.403Z,3.13
2022-10-03T20:37:04.329Z,3.20
2022-10-03T20:39:37.837Z,2.77
2022-10-03T20:42:11.817Z,3.33
2022-10-03T20:45:04.626Z,2.70
2022-10-03T20:47:49.074Z,3.13
2022-10-03T20:50:24.569Z,2.47
2022-10-03T20:52:58.117Z,2.27
2022-10-03T20:55:30.721Z,2.43
2022-10-03T20:58:13.752Z,2.57
2022-10-03T21:00:47.360Z,2.43
2022-10-03T21:03:28.673Z,2.80
2022-10-03T21:05:59.337Z,2.97
2022-10-03T21:08:33.638Z,2.17
2022-10-03T21:11:04.531Z,2.73
2022-10-03T21:13:36.408Z,2.70
2022-10-03T21:16:16.590Z,2.87
2022-10-03T21:18:48.269Z,2.53
2022-10-03T21:21:20.725Z,2.10
2022-10-03T21:23:56.106Z,1.90
2022-10-03T21:26:27.525Z,2.60
2022-10-03T21:29:17.971Z,2.43
2022-10-03T21:31:51.952Z,2.50
2022-10-03T21:34:28.353Z,2.40
2022-10-03T21:37:06.924Z,2.77
2022-10-03T21:39:46.302Z,2.57
2022-10-03T21:42:22.167Z,2.47
2022-10-03T21:45:06.717Z,2.57
2022-10-03T21:47:45.576Z,1.93
2022-10-03T21:50:20.415Z,2.47
2022-10-03T21:53:14.871Z,2.27
2022-10-03T21:56:08.971Z,1.80
2022-10-03T21:58:53.362Z,1.50
2022-10-03T22:01:32.663Z,2.00
2022-10-03T22:04:06.768Z,2.20
2022-10-03T22:06:40.348Z,1.57
2022-10-03T22:09:15.818Z,1.97
2022-10-03T22:11:52.498Z,1.83
2022-10-03T22:14:31.759Z,1.43
2022-10-03T22:17:07.881Z,1.93
2022-10-03T22:19:40.401Z,1.80
2022-10-03T22:22:20.877Z,1.20
2022-10-03T22:25:05.541Z,1.70
2022-10-03T22:27:43.547Z,1.67
2022-10-03T22:30:15.085Z,2.03
2022-10-03T22:32:56.227Z,1.83
2022-10-03T22:35:46.257Z,1.60
2022-10-03T22:38:15.500Z,1.80
2022-10-03T22:40:44.353Z,1.70
2022-10-03T22:43:16.651Z,1.83
2022-10-03T22:45:50.244Z,1.93
2022-10-03T22:48:22.587Z,2.10
2022-10-03T22:50:52.235Z,2.10
2022-10-03T22:53:24.600Z,2.23
2022-10-03T22:55:58.533Z,1.60
2022-10-03T22:58:30.389Z,2.00
2022-10-03T23:01:02.227Z,1.93
2022-10-03T23:03:33.683Z,1.83
2022-10-03T23:06:30.770Z,1.87
2022-10-03T23:09:07.394Z,1.70
2022-10-03T23:11:37.682Z,1.80
2022-10-03T23:14:16.344Z,1.93
2022-10-03T23:16:53.545Z,1.93
2022-10-03T23:19:33.171Z,1.93
2022-10-03T23:22:02.209Z,2.10
2022-10-03T23:24:33.820Z,1.77
2022-10-03T23:27:27.994Z,2.07
2022-10-03T23:30:33.603Z,2.10
2022-10-03T23:33:03.435Z,1.73
2022-10-03T23:35:41.130Z,1.83
2022-10-03T23:38:42.433Z,1.50
2022-10-03T23:41:15.358Z,1.60
2022-10-03T23:43:50.426Z,1.80
2022-10-03T23:46:24.026Z,1.47
2022-10-03T23:48:56.133Z,2.07
2022-10-03T23:51:29.577Z,1.50
2022-10-03T23:54:04.099Z,1.90
2022-10-03T23:56:36.157Z,1.70
2022-10-03T23:59:18.448Z,1.70
